Change the Weather History Date:

Tuesday, March 5, 2013

  Actual Average Record
Temperature  
Mean Temperature 38 °F -  
Max Temperature 44 °F 45 °F 66 °F (2004)
Min Temperature 32 °F 32 °F 15 °F (2009)
Degree Days  
Heating Degree Days 27    
Moisture  
Dew Point 24 °F    
Average Humidity 61    
Maximum Humidity 75    
Minimum Humidity 49    
Precipitation  
Precipitation 0.00 in - - ()
Sea Level Pressure  
Sea Level Pressure 30.01 in    
Wind  
Wind Speed 10 mph (West)    
Max Wind Speed 15 mph    
Max Gust Speed 28 mph    
Visibility 10 miles    
Events      
Averages and records for this station are not official NWS values.
T = Trace of Precipitation, MM = Missing Value Source: NWS Daily Summary

Daily Weather History Graph

Daily Weather History Graph

Search for Another Location

Airport or City:

Trip Planner

Search our weather history database for the weather conditions in past years. The results will help you decide how hot, cold, wet, or windy it might be!

Date:

Astronomy

Mar. 05, 2013 Rise Set
Actual Time 6:25 AM EST 5:56 PM EST
Civil Twilight 5:59 AM EST 6:23 PM EST
Nautical Twilight 5:28 AM EST 6:54 PM EST
Astronomical Twilight 4:57 AM EST 7:25 PM EST
Moon 1:33 AM EST (3/5) 11:35 AM EST (3/5)
Length of Visible Light 12h 24m
Length of Day
11h 30m
Last Quarter, 41% of the Moon is Illuminated
Mar 5
Last Quarter
Mar 11
New
Mar 19
First Quarter
Mar 27
Full
Apr 3
Last Quarter

Hourly Weather History & Observations

Time (EST) Temp. Windchill Dew Point Humidity Pressure Visibility Wind Dir Wind Speed Gust Speed Precip Events Conditions
12:15 AM 33.8 °F 25.3 °F 19.4 °F 56% 29.98 in 10.0 mi NW 11.5 mph 23.0 mph N/A   Clear
12:35 AM 33.8 °F 24.8 °F 19.4 °F 56% 29.98 in 10.0 mi NW 12.7 mph 27.6 mph N/A   Clear
12:55 AM 33.8 °F 23.9 °F 19.4 °F 56% 29.99 in 10.0 mi NW 15.0 mph 23.0 mph N/A   Clear
1:15 AM 33.8 °F 23.9 °F 19.4 °F 56% 29.99 in 10.0 mi NW 15.0 mph 21.9 mph N/A   Clear
2:35 AM 33.8 °F 23.9 °F 19.4 °F 56% 30.01 in 10.0 mi WNW 15.0 mph 19.6 mph N/A   Clear
2:55 AM 33.8 °F 24.3 °F 19.4 °F 56% 30.01 in 10.0 mi WNW 13.8 mph 20.7 mph N/A   Clear
3:15 AM 33.8 °F 25.8 °F 21.2 °F 60% 30.01 in 10.0 mi WNW 10.4 mph 17.3 mph N/A   Clear
3:35 AM 33.8 °F 26.4 °F 19.4 °F 56% 30.01 in 10.0 mi WNW 9.2 mph 17.3 mph N/A   Clear
3:55 AM 33.8 °F 24.3 °F 19.4 °F 56% 30.01 in 10.0 mi WNW 13.8 mph 18.4 mph N/A   Clear
4:15 AM 33.8 °F 24.8 °F 21.2 °F 60% 30.02 in 10.0 mi WNW 12.7 mph 18.4 mph N/A   Clear
4:35 AM 33.8 °F 24.8 °F 21.2 °F 60% 30.02 in 10.0 mi NW 12.7 mph 17.3 mph N/A   Clear
4:55 AM 33.8 °F 24.8 °F 19.4 °F 56% 30.03 in 10.0 mi WNW 12.7 mph - N/A   Clear
5:15 AM 33.8 °F 25.8 °F 19.4 °F 56% 30.03 in 10.0 mi NW 10.4 mph 18.4 mph N/A   Clear
5:35 AM 32.0 °F 23.0 °F 19.4 °F 60% 30.03 in 10.0 mi NW 11.5 mph 17.3 mph N/A   Clear
5:55 AM 32.0 °F 23.6 °F 19.4 °F 60% 30.04 in 10.0 mi NW 10.4 mph 17.3 mph N/A   Clear
6:15 AM 32.0 °F 25.6 °F 19.4 °F 60% 30.04 in 10.0 mi WNW 6.9 mph 17.3 mph N/A   Clear
6:35 AM 32.0 °F 24.8 °F 19.4 °F 60% 30.05 in 10.0 mi WNW 8.1 mph - N/A   Clear
6:55 AM 32.0 °F 24.2 °F 19.4 °F 60% 30.04 in 10.0 mi NW 9.2 mph 16.1 mph N/A   Clear
7:15 AM 33.8 °F 27.0 °F 21.2 °F 60% 30.05 in 10.0 mi WNW 8.1 mph - N/A   Clear
7:35 AM 33.8 °F 27.7 °F 21.2 °F 60% 30.06 in 10.0 mi WNW 6.9 mph 17.3 mph N/A   Clear
8:15 AM 33.8 °F 27.0 °F 21.2 °F 60% 30.07 in 10.0 mi NW 8.1 mph - N/A   Clear
8:35 AM 35.6 °F 28.0 °F 21.2 °F 56% 30.07 in 10.0 mi WNW 10.4 mph - N/A   Clear
8:55 AM 35.6 °F 26.6 °F 23.0 °F 60% 30.07 in 10.0 mi West 13.8 mph - N/A   Clear
9:15 AM 35.6 °F 27.5 °F 21.2 °F 56% 30.07 in 10.0 mi WNW 11.5 mph - N/A   Clear
9:35 AM 35.6 °F 28.6 °F 23.0 °F 60% 30.06 in 10.0 mi NW 9.2 mph - N/A   Clear
9:55 AM 35.6 °F 28.0 °F 23.0 °F 60% 30.06 in 10.0 mi WNW 10.4 mph - N/A   Clear
10:15 AM 35.6 °F 28.6 °F 23.0 °F 60% 30.06 in 10.0 mi WNW 9.2 mph 16.1 mph N/A   Clear
10:35 AM 35.6 °F 28.6 °F 23.0 °F 60% 30.06 in - WNW 9.2 mph - N/A   Clear
10:55 AM 37.4 °F 31.4 °F 24.8 °F 60% 30.06 in - WNW 8.1 mph - N/A   Clear
11:15 AM 37.4 °F 30.3 °F 24.8 °F 60% 30.05 in 10.0 mi WNW 10.4 mph - N/A   Clear
11:35 AM 37.4 °F 32.1 °F 24.8 °F 60% 30.05 in 10.0 mi WNW 6.9 mph - N/A   Clear
11:55 AM 37.4 °F 30.8 °F 24.8 °F 60% 30.05 in 10.0 mi WNW 9.2 mph 16.1 mph N/A   Clear
12:15 PM 37.4 °F 31.4 °F 24.8 °F 60% 30.04 in 10.0 mi West 8.1 mph - N/A   Clear
12:35 PM 39.2 °F 34.2 °F 24.8 °F 56% 30.03 in 10.0 mi WNW 6.9 mph - N/A   Clear
12:55 PM 39.2 °F 32.0 °F 24.8 °F 56% 30.04 in 10.0 mi West 11.5 mph - N/A   Clear
1:15 PM 39.2 °F 32.5 °F 24.8 °F 56% 30.04 in 10.0 mi West 10.4 mph - N/A   Clear
1:35 PM 39.2 °F 35.0 °F 24.8 °F 56% 30.03 in 10.0 mi West 5.8 mph - N/A   Clear
1:55 PM 41.0 °F 36.4 °F 26.6 °F 57% 30.02 in 10.0 mi WNW 6.9 mph - N/A   Clear
2:15 PM 41.0 °F 36.4 °F 26.6 °F 57% 30.02 in 10.0 mi WSW 6.9 mph - N/A   Clear
2:35 PM 41.0 °F 36.4 °F 24.8 °F 53% 30.00 in 10.0 mi West 6.9 mph - N/A   Clear
2:55 PM 41.0 °F - 24.8 °F 53% 30.00 in 10.0 mi Calm Calm - N/A   Clear
3:15 PM 42.8 °F - 24.8 °F 49% 30.00 in 10.0 mi Calm Calm - N/A   Clear
3:35 PM 42.8 °F - 24.8 °F 49% 29.99 in 10.0 mi Calm Calm - N/A   Clear
3:55 PM 44.6 °F 38.8 °F 26.6 °F 49% 29.99 in 10.0 mi SSW 11.5 mph - N/A   Clear
4:15 PM 42.8 °F 37.0 °F 24.8 °F 49% 29.99 in 10.0 mi SSE 10.4 mph - N/A   Clear
4:35 PM 42.8 °F 36.6 °F 24.8 °F 49% 29.99 in 10.0 mi South 11.5 mph - N/A   Clear
4:55 PM 41.0 °F 34.7 °F 23.0 °F 49% 30.00 in 10.0 mi SSE 10.4 mph - N/A   Clear
5:15 PM 39.2 °F 33.0 °F 24.8 °F 56% 30.01 in 10.0 mi SSE 9.2 mph - N/A   Clear
5:35 PM 37.4 °F 32.1 °F 26.6 °F 65% 30.01 in 10.0 mi SE 6.9 mph - N/A   Clear
5:55 PM 37.4 °F 32.8 °F 26.6 °F 65% 30.01 in 10.0 mi ESE 5.8 mph - N/A   Clear
6:15 PM 37.4 °F 32.1 °F 24.8 °F 60% 30.01 in 10.0 mi SE 6.9 mph - N/A   Clear
6:35 PM 35.6 °F 30.7 °F 26.6 °F 70% 30.01 in 10.0 mi ESE 5.8 mph - N/A   Clear
6:55 PM 35.6 °F 29.9 °F 26.6 °F 70% 30.01 in 10.0 mi ESE 6.9 mph - N/A   Clear
7:15 PM 35.6 °F 30.7 °F 26.6 °F 70% 30.01 in 10.0 mi SE 5.8 mph - N/A   Clear
7:35 PM 35.6 °F 29.2 °F 26.6 °F 70% 30.02 in - SSE 8.1 mph - N/A   Clear
7:55 PM 35.6 °F 31.7 °F 26.6 °F 70% 30.01 in - SE 4.6 mph - N/A   Clear
8:15 PM 35.6 °F 30.7 °F 26.6 °F 70% 30.01 in - SE 5.8 mph - N/A   Clear
8:35 PM 35.6 °F 30.7 °F 26.6 °F 70% 30.00 in - SE 5.8 mph - N/A   Clear
8:55 PM 35.6 °F 32.8 °F 28.4 °F 75% 29.99 in - ESE 3.5 mph - N/A   Mostly Cloudy
9:15 PM 35.6 °F 31.7 °F 28.4 °F 75% 29.99 in - ESE 4.6 mph - N/A   Overcast
9:35 PM 37.4 °F 32.1 °F 28.4 °F 70% 29.98 in - ESE 6.9 mph - N/A   Overcast
9:55 PM 37.4 °F 31.4 °F 28.4 °F 70% 29.98 in 10.0 mi ESE 8.1 mph - N/A   Overcast
10:15 PM 37.4 °F 31.4 °F 28.4 °F 70% 29.97 in 10.0 mi SE 8.1 mph - N/A   Overcast
10:35 PM 37.4 °F 32.1 °F 30.2 °F 75% 29.96 in 10.0 mi ESE 6.9 mph - N/A   Overcast
10:55 PM 37.4 °F 30.3 °F 30.2 °F 75% 29.95 in 10.0 mi ESE 10.4 mph - N/A   Overcast
11:15 PM 37.4 °F 30.3 °F 30.2 °F 75% 29.93 in 10.0 mi East 10.4 mph - N/A   Scattered Clouds
11:35 PM 39.2 °F 33.0 °F 30.2 °F 70% 29.92 in 10.0 mi East 9.2 mph 16.1 mph N/A   Scattered Clouds
11:55 PM 39.2 °F 32.5 °F 30.2 °F 70% 29.90 in 10.0 mi East 10.4 mph 18.4 mph N/A   Scattered Clouds